Time;durP1;ratioP1;P1;durP2;ratioP2;P2;SDS_P1;SDS_P2;PMS_P1;PMS_P2;Temp;Humidity;BMP_temperature;BMP_pressure;BME280_temperature;BME280_humidity;BME280_pressure;Samples;Min_cycle;Max_cycle;Signal;HPM_P1;HPM_P2
2022/01/29 00:03:12;;;;;;;4.67;1.70;;;8.60;99.90;;;;;;6149402;23;20262;31
2022/01/29 00:09:04;;;;;;;1.13;1.03;;;8.60;99.90;;;;;;6165721;23;20210;-93
2022/01/29 00:11:35;;;;;;;2.37;1.10;;;8.60;99.90;;;;;;6195675;22;20198;-90
2022/01/29 00:16:42;;;;;;;1.93;1.83;;;8.60;99.90;;;;;;6173809;23;20213;-89
2022/01/29 00:19:25;;;;;;;2.30;1.37;;;8.60;99.90;;;;;;6131615;23;20543;-90
2022/01/29 00:21:53;;;;;;;0.97;0.90;;;8.60;99.90;;;;;;6162701;23;20147;-92
2022/01/29 00:24:24;;;;;;;1.30;1.20;;;8.60;99.90;;;;;;6080927;23;21231;-94
2022/01/29 00:27:03;;;;;;;2.30;1.53;;;8.60;99.90;;;;;;6198340;23;20202;-94
2022/01/29 00:41:41;;;;;;;1.40;1.30;;;8.60;99.90;;;;;;6169114;23;20281;-95
2022/01/29 00:51:02;;;;;;;3.17;1.03;;;8.70;99.90;;;;;;6216568;23;20258;-93
2022/01/29 01:05:31;;;;;;;2.93;1.70;;;8.70;99.90;;;;;;6140988;23;20194;-91
2022/01/29 01:13:36;;;;;;;1.30;1.20;;;8.80;99.90;;;;;;6114498;23;22108;-93
2022/01/29 01:16:03;;;;;;;2.10;1.60;;;8.80;99.90;;;;;;6162534;23;20199;-91
2022/01/29 01:18:31;;;;;;;6.73;2.70;;;8.80;99.90;;;;;;6200198;22;20218;-93
2022/01/29 01:24:05;;;;;;;11.33;1.80;;;8.80;99.90;;;;;;6177786;23;20205;-93
2022/01/29 01:32:39;;;;;;;0.93;0.93;;;8.90;99.90;;;;;;6132113;23;20310;-92
2022/01/29 01:47:27;;;;;;;3.13;2.43;;;9.00;99.90;;;;;;6184912;23;20254;-93
2022/01/29 01:50:07;;;;;;;1.90;1.50;;;9.00;99.90;;;;;;6184610;23;20202;-92
2022/01/29 01:52:41;;;;;;;1.13;1.00;;;9.00;99.90;;;;;;6173407;23;20147;-95
2022/01/29 01:55:09;;;;;;;3.87;1.37;;;9.00;99.90;;;;;;6186191;23;20162;-94
2022/01/29 01:57:35;;;;;;;8.53;2.50;;;9.00;99.90;;;;;;6173608;23;20214;-93
2022/01/29 02:00:12;;;;;;;13.33;4.13;;;9.10;99.90;;;;;;6202038;23;20479;-91
2022/01/29 02:02:51;;;;;;;;;;;;;;;;;;;;;
2022/01/29 02:05:21;;;;;;;2.43;2.23;;;9.10;99.90;;;;;;6149035;23;20241;-90
2022/01/29 02:08:32;;;;;;;2.50;2.30;;;9.10;99.90;;;;;;6142380;23;20305;31
2022/01/29 02:11:11;;;;;;;4.53;1.73;;;9.10;99.90;;;;;;6126848;23;20218;-94
2022/01/29 02:13:39;;;;;;;5.07;2.40;;;9.10;99.90;;;;;;6159019;23;20194;-90
2022/01/29 02:19:37;;;;;;;12.40;1.27;;;9.00;99.90;;;;;;6129677;23;20318;31
2022/01/29 02:25:35;;;;;;;4.70;2.20;;;9.10;99.90;;;;;;6193925;23;20207;-88
2022/01/29 02:28:20;;;;;;;5.33;2.23;;;9.10;99.90;;;;;;6154160;23;20222;-88
2022/01/29 02:31:00;;;;;;;11.63;2.47;;;9.10;99.90;;;;;;6195378;23;20189;-89
2022/01/29 02:33:30;;;;;;;3.50;1.67;;;9.10;99.90;;;;;;6163534;23;20566;-93
2022/01/29 02:36:01;;;;;;;3.23;1.70;;;9.10;99.90;;;;;;6157928;23;20281;-95
2022/01/29 02:38:42;;;;;;;8.23;2.43;;;9.10;99.90;;;;;;6229753;23;20202;-95
2022/01/29 02:49:19;;;;;;;5.40;1.83;;;9.20;99.90;;;;;;6174201;23;20162;-90
2022/01/29 02:51:55;;;;;;;3.03;1.70;;;9.20;99.90;;;;;;6133459;23;20279;-90
2022/01/29 02:54:25;;;;;;;12.40;2.73;;;9.20;99.90;;;;;;6199414;23;20190;-90
2022/01/29 02:59:32;;;;;;;3.43;1.77;;;9.20;99.90;;;;;;6172321;23;20447;-91
2022/01/29 03:12:31;;;;;;;3.80;2.53;;;9.30;99.90;;;;;;6207526;22;20257;-90
2022/01/29 03:14:59;;;;;;;16.17;2.37;;;9.30;99.90;;;;;;6202798;23;20264;-90
2022/01/29 03:17:33;;;;;;;2.80;2.40;;;9.40;99.90;;;;;;6203813;23;20190;-91
2022/01/29 03:19:59;;;;;;;3.17;2.87;;;9.40;99.90;;;;;;6228509;23;20202;-93
2022/01/29 03:22:25;;;;;;;13.23;2.53;;;9.40;99.90;;;;;;6202867;23;20148;-91
2022/01/29 03:24:56;;;;;;;3.40;3.10;;;9.40;99.90;;;;;;6205461;22;20162;-90
2022/01/29 03:27:27;;;;;;;4.00;3.47;;;9.40;99.90;;;;;;6200573;22;20209;-92
2022/01/29 03:29:53;;;;;;;9.60;3.87;;;9.40;99.90;;;;;;6188681;23;20185;-90
2022/01/29 03:40:35;;;;;;;4.60;3.43;;;9.40;99.90;;;;;;6196366;23;20197;-90
2022/01/29 03:43:08;;;;;;;14.23;3.27;;;9.30;99.90;;;;;;6181761;23;20217;-94
2022/01/29 03:45:34;;;;;;;3.30;2.57;;;9.30;99.90;;;;;;6185012;23;20260;-94
2022/01/29 03:48:06;;;;;;;12.70;2.13;;;9.40;99.90;;;;;;6148525;23;20222;-96
2022/01/29 03:57:24;;;;;;;9.73;4.27;;;9.40;99.90;;;;;;6194265;23;20500;-89
2022/01/29 04:00:02;;;;;;;4.37;2.73;;;9.50;99.90;;;;;;6158634;23;20206;-96
2022/01/29 04:05:10;;;;;;;8.13;3.13;;;9.40;99.90;;;;;;6130272;23;20198;-93
2022/01/29 04:07:37;;;;;;;7.73;4.60;;;9.40;99.90;;;;;;6118951;23;20271;-91
2022/01/29 04:10:08;;;;;;;4.87;3.27;;;9.40;99.90;;;;;;6195627;23;20199;-90
2022/01/29 04:15:16;;;;;;;3.60;2.00;;;9.50;99.90;;;;;;6162651;23;20210;-91
2022/01/29 04:20:32;;;;;;;3.93;2.83;;;9.50;99.90;;;;;;6224368;23;20226;-91
2022/01/29 04:28:15;;;;;;;6.00;3.20;;;9.60;99.90;;;;;;6131601;23;20214;-92
2022/01/29 04:30:57;;;;;;;;;;;;;;;;;;;;;
2022/01/29 04:33:28;;;;;;;3.00;2.23;;;9.60;99.90;;;;;;6155445;23;20203;-92
2022/01/29 04:35:59;;;;;;;10.33;4.20;;;9.60;99.90;;;;;;6173201;23;20221;-93
2022/01/29 04:41:06;;;;;;;6.60;3.30;;;9.50;99.90;;;;;;6139023;22;20212;-95
2022/01/29 04:43:37;;;;;;;2.27;1.23;;;9.50;99.90;;;;;;6199794;23;20190;-90
2022/01/29 04:56:37;;;;;;;5.20;3.10;;;9.60;99.90;;;;;;6191580;22;20202;-93
2022/01/29 04:59:03;;;;;;;3.93;2.63;;;9.60;99.90;;;;;;6098156;23;20215;-96
2022/01/29 05:01:29;;;;;;;4.20;3.33;;;9.60;99.90;;;;;;6171657;23;20159;-95
2022/01/29 05:03:57;;;;;;;5.23;4.50;;;9.60;99.90;;;;;;6198051;23;20178;-95
2022/01/29 05:06:23;;;;;;;5.53;3.27;;;9.60;99.90;;;;;;6159859;23;20203;-95
2022/01/29 05:08:49;;;;;;;5.33;4.83;;;9.70;99.90;;;;;;6159390;23;20198;-96
2022/01/29 05:11:16;;;;;;;3.07;2.00;;;9.70;99.90;;;;;;6162583;23;20717;-92
2022/01/29 05:13:42;;;;;;;3.53;3.00;;;9.70;99.90;;;;;;6168203;23;20274;-96
2022/01/29 05:17:07;;;;;;;13.97;3.90;;;9.70;99.90;;;;;;6168496;23;20183;-92
2022/01/29 05:27:24;;;;;;;2.23;1.63;;;9.80;99.90;;;;;;6089905;23;20227;31
2022/01/29 05:29:50;;;;;;;4.37;3.20;;;9.70;99.90;;;;;;6093432;23;20178;-91
2022/01/29 05:32:22;;;;;;;5.70;3.03;;;9.70;99.90;;;;;;6148682;23;20209;-93
2022/01/29 05:34:50;;;;;;;3.03;2.73;;;9.80;99.90;;;;;;6146637;22;20194;-92
2022/01/29 05:37:26;;;;;;;4.13;2.77;;;9.80;99.90;;;;;;6135890;23;20236;-93
2022/01/29 05:39:54;;;;;;;2.97;2.73;;;9.80;99.90;;;;;;6170040;23;20151;-91
2022/01/29 05:42:22;;;;;;;6.50;3.77;;;9.80;99.90;;;;;;6199540;23;20195;-92
2022/01/29 05:44:48;;;;;;;6.40;2.37;;;9.80;99.90;;;;;;6172847;23;20203;-94
2022/01/29 05:47:14;;;;;;;4.20;3.07;;;9.80;99.90;;;;;;6166056;23;20289;-93
2022/01/29 05:49:40;;;;;;;6.20;3.03;;;9.80;99.90;;;;;;6132866;23;20518;-89
2022/01/29 05:52:05;;;;;;;3.40;2.73;;;9.90;99.90;;;;;;6159101;23;20166;-93
2022/01/29 05:54:31;;;;;;;4.37;3.73;;;9.80;99.90;;;;;;6185402;23;20277;-90
2022/01/29 05:56:57;;;;;;;2.73;2.53;;;9.80;99.90;;;;;;6183142;23;20233;-91
2022/01/29 05:59:23;;;;;;;5.83;3.57;;;9.80;99.90;;;;;;6129231;23;20304;-89
2022/01/29 06:01:49;;;;;;;6.30;3.97;;;9.80;99.90;;;;;;6130275;23;20194;-90
2022/01/29 06:04:14;;;;;;;9.30;3.30;;;9.80;99.90;;;;;;6106984;23;20154;-92
2022/01/29 06:06:40;;;;;;;3.93;2.70;;;9.80;99.90;;;;;;6134418;23;20202;-89
2022/01/29 06:09:06;;;;;;;3.70;3.27;;;9.80;99.90;;;;;;6166545;23;20792;-91
2022/01/29 06:11:34;;;;;;;4.93;3.27;;;9.80;99.90;;;;;;6142413;23;20194;-94
2022/01/29 06:14:01;;;;;;;4.53;3.73;;;9.80;99.90;;;;;;6188123;23;20190;-91
2022/01/29 06:16:26;;;;;;;5.70;3.43;;;9.80;99.90;;;;;;6184901;23;20187;-89
2022/01/29 06:18:52;;;;;;;8.23;2.80;;;9.80;99.90;;;;;;6155873;23;20159;-87
2022/01/29 06:21:18;;;;;;;3.73;2.83;;;9.90;99.90;;;;;;6156211;23;20293;-88
2022/01/29 06:23:44;;;;;;;2.83;2.60;;;9.80;99.90;;;;;;6157409;23;20571;-88
2022/01/29 06:26:12;;;;;;;5.07;3.23;;;9.80;99.90;;;;;;6157647;23;20198;-87
2022/01/29 06:28:39;;;;;;;2.43;2.13;;;9.80;99.90;;;;;;6130369;23;20155;-89
2022/01/29 06:31:05;;;;;;;4.93;2.73;;;9.90;99.90;;;;;;6132599;23;20159;-88
2022/01/29 06:33:32;;;;;;;2.43;1.73;;;9.90;99.90;;;;;;6156720;23;20206;-85
2022/01/29 06:35:58;;;;;;;4.80;4.33;;;9.90;99.90;;;;;;6153109;23;20234;-84
2022/01/29 06:38:24;;;;;;;4.50;2.30;;;9.90;99.90;;;;;;6131151;23;20261;-88
2022/01/29 06:40:51;;;;;;;2.20;2.00;;;9.90;99.90;;;;;;6130041;23;20291;-88
2022/01/29 06:43:17;;;;;;;3.80;3.27;;;9.90;99.90;;;;;;6156618;23;20169;-89
2022/01/29 06:45:47;;;;;;;4.50;3.77;;;9.90;99.90;;;;;;6156623;23;20202;-91
2022/01/29 06:48:14;;;;;;;5.83;2.03;;;9.90;99.90;;;;;;6159012;23;20230;-93
2022/01/29 06:50:41;;;;;;;11.70;4.33;;;9.90;99.90;;;;;;6155816;23;20202;-91
2022/01/29 06:53:07;;;;;;;4.47;2.97;;;9.90;99.90;;;;;;6128942;23;20195;-88
2022/01/29 06:55:33;;;;;;;4.17;2.50;;;9.90;99.90;;;;;;6179877;23;20601;-91
2022/01/29 06:57:59;;;;;;;5.07;3.03;;;9.90;99.90;;;;;;6126860;23;20255;-90
2022/01/29 07:00:25;;;;;;;5.23;2.23;;;9.90;99.90;;;;;;6176460;23;20626;-89
2022/01/29 07:02:52;;;;;;;2.17;2.03;;;9.80;99.90;;;;;;6126398;23;20206;-89
2022/01/29 07:05:17;;;;;;;2.53;1.53;;;9.80;99.90;;;;;;6101558;23;20194;-89
2022/01/29 07:07:43;;;;;;;5.53;2.90;;;9.80;99.90;;;;;;6101283;23;20199;-87
2022/01/29 07:10:09;;;;;;;12.40;3.57;;;9.80;99.90;;;;;;6151141;23;20592;-88
2022/01/29 07:12:40;;;;;;;2.73;1.60;;;9.80;99.90;;;;;;6150459;23;20202;-90
2022/01/29 07:15:07;;;;;;;7.57;3.47;;;9.80;99.90;;;;;;6126112;23;20191;-88
2022/01/29 07:17:33;;;;;;;3.37;2.40;;;9.80;99.90;;;;;;6176437;23;20230;-91
2022/01/29 07:19:59;;;;;;;3.07;2.87;;;9.80;99.90;;;;;;6126043;23;20190;-88
2022/01/29 07:22:25;;;;;;;10.43;2.20;;;9.80;99.90;;;;;;6150322;23;20193;-89
2022/01/29 07:24:51;;;;;;;2.30;2.10;;;9.80;99.90;;;;;;6151145;23;20648;-88
2022/01/29 07:27:17;;;;;;;3.10;1.30;;;9.80;99.90;;;;;;6150436;23;20202;-90
2022/01/29 07:29:43;;;;;;;3.63;1.97;;;9.80;99.90;;;;;;6176971;23;20313;-86
2022/01/29 07:32:10;;;;;;;3.50;2.47;;;9.80;99.90;;;;;;6150604;23;20187;-86
2022/01/29 07:34:37;;;;;;;1.23;1.13;;;9.80;99.90;;;;;;6152456;23;20587;-90
2022/01/29 07:37:04;;;;;;;4.07;2.80;;;9.80;99.90;;;;;;6151938;23;20300;-89
2022/01/29 07:39:30;;;;;;;3.50;2.60;;;9.80;99.90;;;;;;6151303;23;20198;-86
2022/01/29 07:41:56;;;;;;;10.97;3.70;;;9.80;99.90;;;;;;6128086;23;20217;-91
2022/01/29 07:44:22;;;;;;;5.63;1.80;;;9.80;99.90;;;;;;6103295;23;20198;-88
2022/01/29 07:46:49;;;;;;;2.97;2.47;;;9.80;99.90;;;;;;6127557;23;20195;-88
2022/01/29 07:49:14;;;;;;;2.40;2.10;;;9.80;99.90;;;;;;6128671;23;20166;-88
2022/01/29 07:51:40;;;;;;;18.37;3.03;;;9.80;99.90;;;;;;6102201;23;20198;-87
2022/01/29 07:54:07;;;;;;;3.27;2.50;;;9.80;99.90;;;;;;6151463;23;20226;-86
2022/01/29 07:56:33;;;;;;;2.73;1.40;;;9.80;99.90;;;;;;6126823;23;20209;-85
2022/01/29 07:58:59;;;;;;;1.97;1.77;;;9.80;99.90;;;;;;6150886;23;20195;-87
2022/01/29 08:01:25;;;;;;;2.83;1.77;;;9.80;99.90;;;;;;6150227;23;20154;-86
2022/01/29 08:03:52;;;;;;;9.20;3.10;;;9.80;99.90;;;;;;6151484;23;20170;-88
2022/01/29 08:06:22;;;;;;;3.07;2.23;;;9.80;99.90;;;;;;6151469;23;20202;-87
2022/01/29 08:08:48;;;;;;;3.13;1.60;;;9.80;99.90;;;;;;6150675;23;20639;-87
2022/01/29 08:11:15;;;;;;;2.17;1.13;;;9.80;99.90;;;;;;6151410;23;20557;-88
2022/01/29 08:13:40;;;;;;;6.93;2.07;;;9.80;99.90;;;;;;6176686;23;20245;-85
2022/01/29 08:16:06;;;;;;;1.47;1.20;;;9.80;99.90;;;;;;6151899;23;20265;-88
2022/01/29 08:18:32;;;;;;;1.93;1.63;;;9.90;99.90;;;;;;6149466;23;20190;-86
2022/01/29 08:20:58;;;;;;;3.63;1.77;;;9.90;99.90;;;;;;6148702;23;20636;-86
2022/01/29 08:23:24;;;;;;;3.13;0.87;;;9.90;99.90;;;;;;6148750;23;20554;-84
2022/01/29 08:25:50;;;;;;;4.80;2.43;;;10.00;99.90;;;;;;6124198;23;20202;-89
2022/01/29 08:28:16;;;;;;;1.10;0.80;;;10.10;99.90;;;;;;6151064;23;20155;-86
2022/01/29 08:30:42;;;;;;;1.70;1.23;;;10.10;99.90;;;;;;6125496;23;20198;-86
2022/01/29 08:33:08;;;;;;;1.50;1.23;;;10.10;99.90;;;;;;6176233;23;20197;-85
2022/01/29 08:35:34;;;;;;;3.73;1.47;;;10.20;99.90;;;;;;6151068;23;20190;-88
2022/01/29 08:38:00;;;;;;;3.50;1.77;;;10.20;99.90;;;;;;6151055;23;20206;-89
2022/01/29 08:40:27;;;;;;;3.37;1.63;;;10.20;99.90;;;;;;6126850;23;20694;-89
2022/01/29 08:42:54;;;;;;;2.93;1.33;;;10.30;99.90;;;;;;6152472;23;20159;-89
2022/01/29 08:45:20;;;;;;;1.87;1.13;;;10.30;99.90;;;;;;6176686;23;20213;-89
2022/01/29 08:47:46;;;;;;;9.43;1.20;;;10.20;99.90;;;;;;6151330;23;20206;-89
2022/01/29 08:50:13;;;;;;;2.93;0.80;;;10.20;99.90;;;;;;6177446;23;20277;-87
2022/01/29 08:52:39;;;;;;;1.60;1.60;;;10.20;99.90;;;;;;6177522;23;20233;-88
2022/01/29 08:55:07;;;;;;;1.90;1.47;;;10.20;99.90;;;;;;6129445;23;20229;-89
2022/01/29 08:57:33;;;;;;;5.20;1.30;;;10.20;99.90;;;;;;6153527;23;20226;-87
2022/01/29 09:00:00;;;;;;;1.73;1.63;;;10.20;99.90;;;;;;6151893;23;20198;-89
2022/01/29 09:02:26;;;;;;;6.27;2.33;;;10.20;99.90;;;;;;6127932;23;20190;-90
2022/01/29 09:04:57;;;;;;;5.27;1.23;;;10.20;99.90;;;;;;6127338;23;20194;-87
2022/01/29 09:07:23;;;;;;;2.93;1.90;;;10.30;99.90;;;;;;6129810;23;20178;-86
2022/01/29 09:09:49;;;;;;;0.97;0.80;;;10.30;99.90;;;;;;6109688;23;20162;-87
2022/01/29 09:12:15;;;;;;;3.10;1.57;;;10.40;99.90;;;;;;6196596;23;20225;-88
2022/01/29 09:14:41;;;;;;;1.87;1.70;;;10.40;99.90;;;;;;6126343;23;20195;-86
2022/01/29 09:17:07;;;;;;;1.17;1.07;;;10.40;99.90;;;;;;6150950;23;20217;-84
2022/01/29 09:19:33;;;;;;;3.07;1.87;;;10.50;99.90;;;;;;6176893;23;20161;-88
2022/01/29 09:21:59;;;;;;;1.70;1.43;;;10.50;99.90;;;;;;6151674;23;20167;-88
2022/01/29 09:24:24;;;;;;;0.83;0.83;;;10.50;99.90;;;;;;6151578;23;20217;-87
2022/01/29 09:26:50;;;;;;;4.33;1.17;;;10.40;99.90;;;;;;6176506;23;20265;-87
2022/01/29 09:29:16;;;;;;;1.80;0.90;;;10.40;99.90;;;;;;6151099;23;20190;-91
2022/01/29 09:31:42;;;;;;;3.50;1.17;;;10.50;99.90;;;;;;6176947;23;20218;-91
2022/01/29 09:34:08;;;;;;;4.67;2.10;;;10.50;99.90;;;;;;6127393;23;20588;-88
2022/01/29 09:36:34;;;;;;;1.47;1.37;;;10.50;99.90;;;;;;6124492;23;20215;-90
2022/01/29 09:39:00;;;;;;;5.87;1.20;;;10.50;99.90;;;;;;6146934;23;20199;-88
2022/01/29 09:41:27;;;;;;;3.13;1.70;;;10.50;99.90;;;;;;6147295;23;20333;-88
2022/01/29 09:43:55;;;;;;;1.17;1.07;;;10.50;99.90;;;;;;6146478;23;20191;-93
2022/01/29 09:46:21;;;;;;;0.73;0.60;;;10.50;99.90;;;;;;6147284;23;20155;-90
2022/01/29 09:48:46;;;;;;;0.37;0.37;;;10.50;99.90;;;;;;6146282;23;20183;-90
2022/01/29 09:51:13;;;;;;;1.03;1.00;;;10.60;99.90;;;;;;6121422;23;20283;-88
2022/01/29 09:53:43;;;;;;;1.43;1.23;;;10.70;99.90;;;;;;6100858;23;20222;-89
2022/01/29 09:56:13;;;;;;;2.43;1.13;;;10.60;99.90;;;;;;6147294;23;20211;-91
2022/01/29 09:58:40;;;;;;;2.50;1.13;;;10.70;99.90;;;;;;6150824;23;20175;-88
2022/01/29 10:01:07;;;;;;;5.53;2.00;;;10.70;99.90;;;;;;6178940;23;20165;-89
2022/01/29 10:03:32;;;;;;;13.23;2.00;;;10.70;99.90;;;;;;6147753;23;20205;-89
2022/01/29 10:06:01;;;;;;;1.13;1.03;;;10.70;99.90;;;;;;6143967;23;20571;-90
2022/01/29 10:08:27;;;;;;;1.80;0.80;;;10.80;99.90;;;;;;6146487;23;20242;-89
2022/01/29 10:10:55;;;;;;;5.50;0.90;;;10.80;99.90;;;;;;6144416;23;20198;-87
2022/01/29 10:13:28;;;;;;;1.30;1.17;;;10.90;99.90;;;;;;6144321;23;20156;-85
2022/01/29 10:16:08;;;;;;;4.30;0.67;;;10.90;99.90;;;;;;6144831;23;20170;-87
2022/01/29 10:18:35;;;;;;;0.47;0.47;;;10.90;99.90;;;;;;6147434;23;20207;-85
2022/01/29 10:21:21;;;;;;;1.43;1.37;;;10.90;99.90;;;;;;6119482;23;20195;-87
2022/01/29 10:23:47;;;;;;;3.30;1.33;;;10.90;99.90;;;;;;6144122;23;20968;-88
2022/01/29 10:26:27;;;;;;;11.37;1.27;;;11.00;99.90;;;;;;6144334;23;20195;-88
2022/01/29 10:28:55;;;;;;;2.50;1.93;;;11.00;99.90;;;;;;6147780;23;20198;-87
2022/01/29 10:31:21;;;;;;;1.37;1.27;;;11.00;99.90;;;;;;6174951;23;20370;-83
2022/01/29 10:33:47;;;;;;;10.40;1.80;;;11.00;99.90;;;;;;6121870;23;20668;-88
2022/01/29 10:36:19;;;;;;;3.97;1.27;;;11.00;99.90;;;;;;6148071;23;20342;-86
2022/01/29 10:38:57;;;;;;;2.43;0.50;;;11.00;99.90;;;;;;6153347;23;20206;-89
2022/01/29 10:41:32;;;;;;;0.77;0.67;;;11.00;99.90;;;;;;6178757;23;20646;-88
2022/01/29 10:44:22;;;;;;;1.73;0.67;;;11.00;99.90;;;;;;6128398;23;20198;-88
2022/01/29 10:46:50;;;;;;;0.87;0.77;;;11.00;99.90;;;;;;6128688;23;20198;-86
2022/01/29 10:49:24;;;;;;;3.27;1.67;;;11.00;99.90;;;;;;6150953;23;20151;-87
2022/01/29 10:51:57;;;;;;;1.23;0.60;;;11.00;99.90;;;;;;6176638;23;20199;-90
2022/01/29 10:54:24;;;;;;;4.50;0.80;;;11.00;99.90;;;;;;6150980;23;20202;-88
2022/01/29 10:56:57;;;;;;;4.13;1.90;;;11.00;99.90;;;;;;6176437;23;20206;-91
2022/01/29 10:59:24;;;;;;;0.90;0.90;;;11.00;99.90;;;;;;6150850;23;20214;-90
2022/01/29 11:01:52;;;;;;;3.77;1.40;;;11.00;99.90;;;;;;6150215;23;20206;-90
2022/01/29 11:04:18;;;;;;;1.30;1.07;;;11.00;99.90;;;;;;6150474;23;20151;-88
2022/01/29 11:06:46;;;;;;;1.17;1.00;;;11.00;99.90;;;;;;6176391;23;20314;-90
2022/01/29 11:09:13;;;;;;;5.90;1.10;;;11.10;99.90;;;;;;6153117;23;20194;-88
2022/01/29 11:11:44;;;;;;;0.40;0.40;;;11.20;99.90;;;;;;6129982;23;20269;-90
2022/01/29 11:14:13;;;;;;;11.03;1.17;;;11.20;99.90;;;;;;6129000;23;20182;-86
2022/01/29 11:16:39;;;;;;;1.07;0.90;;;11.20;99.90;;;;;;6151272;23;20182;-89
2022/01/29 11:19:06;;;;;;;5.40;1.00;;;11.20;99.90;;;;;;6182706;23;20155;-88
2022/01/29 11:21:33;;;;;;;0.73;0.73;;;11.20;99.90;;;;;;6140069;23;20178;-87
2022/01/29 11:23:59;;;;;;;2.60;1.00;;;11.30;99.90;;;;;;6195028;23;20195;-88
2022/01/29 11:26:29;;;;;;;1.67;0.83;;;11.30;99.90;;;;;;6103397;23;20555;-88
2022/01/29 11:29:32;;;;;;;2.63;0.80;;;11.40;99.90;;;;;;6128344;23;20194;-91
2022/01/29 11:32:22;;;;;;;2.10;0.60;;;11.40;99.90;;;;;;6004995;23;20205;-89
2022/01/29 11:35:14;;;;;;;2.17;1.73;;;11.40;99.90;;;;;;6148060;23;20680;-88
2022/01/29 11:37:39;;;;;;;4.27;1.03;;;11.50;99.90;;;;;;6150242;23;20207;-89
2022/01/29 11:40:25;;;;;;;2.00;0.97;;;11.50;99.90;;;;;;6178653;23;20173;-87
2022/01/29 11:42:52;;;;;;;0.60;0.60;;;11.60;99.90;;;;;;6178042;23;20376;-88
2022/01/29 11:45:50;;;;;;;1.33;1.33;;;11.60;99.90;;;;;;6146835;23;20646;-86
2022/01/29 11:48:29;;;;;;;4.07;1.13;;;11.70;99.90;;;;;;6097615;23;20229;-87
2022/01/29 11:51:05;;;;;;;0.70;0.70;;;11.70;99.90;;;;;;6167491;23;20202;-87
2022/01/29 11:53:46;;;;;;;6.30;1.50;;;11.60;99.90;;;;;;6149109;23;20214;-85
2022/01/29 11:56:28;;;;;;;0.67;0.37;;;11.70;99.90;;;;;;6146825;23;20279;-90
2022/01/29 11:59:19;;;;;;;1.73;0.53;;;11.80;99.90;;;;;;6166881;23;20202;-87
2022/01/29 12:02:11;;;;;;;1.63;1.20;;;11.80;99.90;;;;;;6147159;23;20230;-89
2022/01/29 12:04:54;;;;;;;4.53;1.20;;;11.80;99.90;;;;;;6108423;23;20181;-90
2022/01/29 12:07:32;;;;;;;2.63;0.43;;;11.80;99.90;;;;;;6178554;23;20190;-90
2022/01/29 12:10:14;;;;;;;0.20;0.20;;;11.90;99.90;;;;;;6146955;23;20690;-87
2022/01/29 12:12:41;;;;;;;3.73;2.10;;;12.00;99.90;;;;;;6126734;23;20191;-89
2022/01/29 12:15:10;;;;;;;9.77;1.03;;;11.90;99.90;;;;;;6122660;23;20261;-88
2022/01/29 12:17:43;;;;;;;17.20;1.07;;;11.90;99.90;;;;;;6175297;23;20550;-89
2022/01/29 12:20:12;;;;;;;2.40;0.63;;;12.00;99.90;;;;;;6177525;23;20195;-88
2022/01/29 12:22:39;;;;;;;2.63;0.70;;;12.00;99.90;;;;;;6150547;23;20197;-90
2022/01/29 12:25:08;;;;;;;3.33;1.03;;;12.00;99.90;;;;;;6147512;23;20166;-89
2022/01/29 12:27:55;;;;;;;0.60;0.53;;;11.90;99.90;;;;;;6149595;23;20230;-92
2022/01/29 12:30:36;;;;;;;1.77;1.67;;;11.80;99.90;;;;;;6147431;23;20275;-90
2022/01/29 12:33:03;;;;;;;2.33;0.67;;;11.80;99.90;;;;;;6178229;23;20199;-87
2022/01/29 12:36:03;;;;;;;2.97;0.80;;;11.80;99.90;;;;;;6148320;23;20195;-94
2022/01/29 12:38:40;;;;;;;2.03;0.77;;;11.90;99.90;;;;;;6085912;23;20219;-90
2022/01/29 12:41:11;;;;;;;0.23;0.23;;;11.90;99.90;;;;;;6147056;23;20262;-91
2022/01/29 12:44:02;;;;;;;2.93;0.80;;;11.90;99.90;;;;;;6150591;23;20198;-93
2022/01/29 12:46:30;;;;;;;4.80;1.80;;;12.00;99.90;;;;;;6147700;23;20937;-91
2022/01/29 12:49:11;;;;;;;2.13;0.50;;;12.00;99.90;;;;;;6123135;23;20163;-93
2022/01/29 12:51:50;;;;;;;0.80;0.70;;;12.00;99.90;;;;;;6175895;23;20199;-89
2022/01/29 12:54:16;;;;;;;0.40;0.40;;;11.90;99.90;;;;;;6177456;23;20402;-90
2022/01/29 12:56:42;;;;;;;1.60;0.20;;;11.90;99.90;;;;;;6151234;23;20575;-89
2022/01/29 12:59:12;;;;;;;2.23;1.10;;;11.90;99.90;;;;;;6121271;23;20198;-90
2022/01/29 13:01:40;;;;;;;5.43;0.53;;;11.90;99.90;;;;;;6126238;23;20588;-93
2022/01/29 13:04:16;;;;;;;1.93;1.53;;;11.90;99.90;;;;;;6123660;23;20626;-90
2022/01/29 13:06:42;;;;;;;2.20;1.47;;;11.90;99.90;;;;;;6177395;23;20229;-91
2022/01/29 13:09:25;;;;;;;0.90;0.60;;;12.00;99.90;;;;;;6098179;23;20203;-88
2022/01/29 13:12:03;;;;;;;5.00;0.90;;;12.10;99.90;;;;;;6148982;23;21083;-90
2022/01/29 13:14:29;;;;;;;1.13;0.43;;;12.20;99.90;;;;;;6150139;23;20230;-93
2022/01/29 13:16:58;;;;;;;1.40;0.97;;;12.10;99.90;;;;;;6098087;23;20262;-92
2022/01/29 13:19:25;;;;;;;0.20;0.20;;;12.10;99.90;;;;;;6123502;23;20528;-93
2022/01/29 13:22:07;;;;;;;0.63;0.63;;;12.20;99.90;;;;;;6147919;23;20270;-89
2022/01/29 13:24:34;;;;;;;0.57;0.30;;;12.20;99.90;;;;;;6176781;23;20198;-92
2022/01/29 13:27:09;;;;;;;2.40;1.47;;;12.20;99.90;;;;;;6180298;23;20229;-91
2022/01/29 13:29:46;;;;;;;1.27;0.97;;;12.10;99.90;;;;;;6126425;23;20546;-91
2022/01/29 13:32:26;;;;;;;1.97;1.57;;;12.10;99.90;;;;;;6149502;23;20190;-92
2022/01/29 13:34:52;;;;;;;1.20;0.77;;;12.10;99.90;;;;;;6153851;23;20187;-90
2022/01/29 13:37:33;;;;;;;0.77;0.77;;;12.10;99.90;;;;;;6143734;23;20230;-87
2022/01/29 13:40:03;;;;;;;5.67;0.87;;;12.10;99.90;;;;;;6174150;23;20223;-91
2022/01/29 13:42:32;;;;;;;0.67;0.67;;;12.20;99.90;;;;;;6150153;23;20246;-91
2022/01/29 13:45:07;;;;;;;0.33;0.33;;;12.20;99.90;;;;;;6148032;23;20281;-90
2022/01/29 13:47:34;;;;;;;4.30;0.97;;;12.10;99.90;;;;;;6150894;23;20198;-88
2022/01/29 13:50:23;;;;;;;7.13;1.70;;;12.10;99.90;;;;;;6179665;23;20195;-89
2022/01/29 13:53:22;;;;;;;5.17;1.33;;;12.10;99.90;;;;;;6148748;23;20191;-88
2022/01/29 13:56:23;;;;;;;0.67;0.67;;;12.00;99.90;;;;;;6069993;23;20195;-91
2022/01/29 13:58:53;;;;;;;0.43;0.43;;;12.00;99.90;;;;;;6162435;23;20272;-91
2022/01/29 14:01:44;;;;;;;3.13;1.67;;;12.00;99.90;;;;;;6180551;23;20158;-90
2022/01/29 14:06:58;;;;;;;2.63;0.83;;;11.90;99.90;;;;;;6151982;23;20182;-88
2022/01/29 14:09:42;;;;;;;7.53;1.13;;;11.90;99.90;;;;;;6144328;23;20197;-87
2022/01/29 14:12:24;;;;;;;1.70;0.50;;;11.80;99.90;;;;;;6142651;23;20280;-85
2022/01/29 14:14:55;;;;;;;2.87;0.57;;;11.80;99.90;;;;;;6143892;23;20199;-90
2022/01/29 14:17:24;;;;;;;0.50;0.50;;;11.80;99.90;;;;;;6147410;23;20218;-90
2022/01/29 14:19:56;;;;;;;1.80;0.33;;;11.80;99.90;;;;;;6146575;23;20191;-88
2022/01/29 14:22:24;;;;;;;3.07;0.50;;;11.80;99.90;;;;;;6123458;23;20159;-89
2022/01/29 14:24:51;;;;;;;3.97;1.10;;;11.90;99.90;;;;;;6148788;23;20282;-89
2022/01/29 14:27:17;;;;;;;0.70;0.40;;;11.90;99.90;;;;;;6147946;23;20199;-89
2022/01/29 14:29:44;;;;;;;6.47;0.80;;;11.80;99.90;;;;;;6153074;23;20200;-91
2022/01/29 14:32:11;;;;;;;2.47;0.93;;;11.70;99.90;;;;;;6148841;23;20198;-92
2022/01/29 14:34:37;;;;;;;3.87;0.90;;;11.80;99.90;;;;;;6152297;23;20156;-93
2022/01/29 14:37:04;;;;;;;5.90;2.00;;;11.70;99.90;;;;;;6151859;23;20299;-92
2022/01/29 14:39:30;;;;;;;1.90;1.27;;;11.70;99.90;;;;;;6153376;23;20206;-92
2022/01/29 14:42:00;;;;;;;3.10;0.87;;;11.70;99.90;;;;;;6129407;23;20273;-93
2022/01/29 14:44:27;;;;;;;2.83;1.30;;;11.80;99.90;;;;;;6129945;23;20337;-91
2022/01/29 14:46:52;;;;;;;1.43;1.07;;;11.80;99.90;;;;;;6129263;23;20194;-92
2022/01/29 14:49:18;;;;;;;8.90;1.33;;;11.80;99.90;;;;;;6104618;23;20246;-93
2022/01/29 14:51:45;;;;;;;4.63;0.83;;;11.80;99.90;;;;;;6128610;23;20195;-89
2022/01/29 14:54:13;;;;;;;9.53;0.60;;;11.90;99.90;;;;;;6153872;23;20194;-88
2022/01/29 14:56:44;;;;;;;6.20;1.63;;;12.00;99.90;;;;;;6129736;23;20199;-92
2022/01/29 14:59:11;;;;;;;3.43;2.17;;;12.00;99.90;;;;;;6152860;23;20835;-91
2022/01/29 15:01:38;;;;;;;4.20;2.63;;;12.00;99.90;;;;;;6129565;23;20213;-91
2022/01/29 15:04:03;;;;;;;0.53;0.53;;;12.00;99.90;;;;;;6179560;23;20165;-90
2022/01/29 15:06:29;;;;;;;7.07;0.87;;;11.90;99.90;;;;;;6178313;23;20202;-89
2022/01/29 15:08:55;;;;;;;0.50;0.50;;;11.80;99.90;;;;;;6153406;23;20203;-91
2022/01/29 15:11:22;;;;;;;8.50;1.70;;;11.80;99.90;;;;;;6179618;23;20252;-93
2022/01/29 15:13:49;;;;;;;4.83;1.10;;;11.70;99.90;;;;;;6154046;23;20256;-92
2022/01/29 15:16:16;;;;;;;3.80;0.40;;;11.70;99.90;;;;;;6153994;23;20241;-92
2022/01/29 15:18:42;;;;;;;4.97;2.67;;;11.60;99.90;;;;;;6128530;23;20213;-92
2022/01/29 15:21:09;;;;;;;1.17;0.97;;;11.50;99.90;;;;;;6129252;23;20198;-93
2022/01/29 15:23:35;;;;;;;2.83;1.20;;;11.30;99.90;;;;;;6153388;23;20221;-92
2022/01/29 15:26:01;;;;;;;0.73;0.47;;;11.30;99.90;;;;;;6152381;23;20198;-88
2022/01/29 15:28:27;;;;;;;5.00;1.40;;;11.20;99.90;;;;;;6152382;23;20238;-93
2022/01/29 15:30:56;;;;;;;2.50;0.70;;;11.20;99.90;;;;;;6153953;23;20159;-91
2022/01/29 15:33:23;;;;;;;6.47;1.50;;;11.20;99.90;;;;;;6153124;23;20199;-91
2022/01/29 15:35:49;;;;;;;3.93;1.93;;;11.20;99.90;;;;;;6178993;23;20324;-91